This is the latest recevied weather packets stored in our database for station/object IK2YOU-3. If no packets are shown the sender has not sent any weather packets the latest 10 day(s).
| Time | Temp. | Humidity | Pressure | Rain* | Wind** | Luminosity | Snow |
|---|---|---|---|---|---|---|---|
| 1777708442 | 18.33° C | 52% | 1024.1 hPa | 0 mm | - | 406 W/m² | - |
| 1777707843 | 17.78° C | 53% | 1024.1 hPa | 0 mm | - | 377 W/m² | - |
| 1777707243 | 17.78° C | 51% | 1024.1 hPa | 0 mm | - | 335 W/m² | - |
| 1777706770 | 17.22° C | 54% | 1024.2 hPa | 0 mm | - | 287 W/m² | - |
| 1777706043 | 16.67° C | 58% | 1024.2 hPa | 0 mm | - | 248 W/m² | - |
| 1777705442 | 16.67° C | 58% | 1024.3 hPa | 0 mm | - | 226 W/m² | - |
| 1777704973 | 16.11° C | 62% | 1024.3 hPa | 0 mm | - | 207 W/m² | - |
| 1777704242 | 15.56° C | 63% | 1024.4 hPa | 0 mm | - | 187 W/m² | - |
| 1777703643 | 15° C | 64% | 1024.4 hPa | 0 mm | - | 165 W/m² | - |
| 1777703166 | 14.44° C | 68% | 1024.4 hPa | 0 mm | - | 146 W/m² | - |
| 1777702452 | 13.89° C | 68% | 1024.4 hPa | 0 mm | - | 132 W/m² | - |
| 1777701853 | 13.33° C | 71% | 1024.4 hPa | 0 mm | - | 116 W/m² | - |
| 1777701239 | 12.78° C | 73% | 1024.4 hPa | 0 mm | - | 95 W/m² | - |
| 1777700640 | 12.78° C | 74% | 1024.4 hPa | 0 mm | - | 86 W/m² | - |
| 1777700052 | 12.22° C | 76% | 1024.3 hPa | 0 mm | - | 65 W/m² | - |
| 1777699439 | 11.11° C | 79% | 1024.2 hPa | 0 mm | - | 54 W/m² | - |
| 1777698839 | 10.56° C | 82% | 1024.1 hPa | 0 mm | - | 43 W/m² | - |
| 1777698368 | 10° C | 81% | 1024 hPa | 0 mm | - | 35 W/m² | - |
| 1777697633 | 10° C | 82% | 1024.1 hPa | 0 mm | - | 18 W/m² | - |
| 1777697033 | 9.44° C | 82% | 1024.1 hPa | 0 mm | - | 14 W/m² | - |
| 1777696432 | 9.44° C | 81% | 1024 hPa | 0 mm | - | 10 W/m² | - |
| 1777695833 | 10° C | 81% | 1024 hPa | 0 mm | - | 6 W/m² | - |
| 1777695231 | 10° C | 79% | 1024 hPa | 0 mm | - | 2 W/m² | - |
| 1777694759 | 10° C | 79% | 1024 hPa | 0 mm | - | 0 W/m² | - |
| 1777694028 | 10° C | 81% | 1024 hPa | 0 mm | - | 0 W/m² | - |
* Rain latest hour (hover to see other rain measurements)
** Current wind speed in m/s (hover to see current wind gust speed)